Terminal Aerodrome Forecast
Issued by NWS Newport/Morehead City, NC

Home | Current Version | Previous Version | Text Only | Print | Product List | Glossary On
Versions: 1 2 3 4 5 6 7 8 9 10 11 12 13 14 15 16
000
FTUS42 KMHX 232300
TAFEWN
TAF
KEWN 232321Z 2400/2424 01010KT P6SM -RA OVC040
     FM240600 03010KT 3SM -RA BR BKN007 OVC015
     FM241600 03009KT 5SM BR VCSH OVC010=

USA.gov is the U.S. government's official web portal to all federal, state and local government web resources and services.